createdAt,value
2022-09-03T00:01:13.473Z,957.47
2022-09-03T00:03:13.483Z,957.5
2022-09-03T00:04:13.494Z,957.51
2022-09-03T00:06:13.494Z,957.56
2022-09-03T00:07:13.576Z,957.59
2022-09-03T00:08:13.539Z,957.62
2022-09-03T00:09:13.487Z,957.69
2022-09-03T00:10:14.629Z,957.75
2022-09-03T00:11:13.675Z,957.81
2022-09-03T00:12:13.510Z,957.84
2022-09-03T00:13:13.588Z,957.88
2022-09-03T00:14:13.775Z,957.81
2022-09-03T00:15:13.536Z,957.86
2022-09-03T00:17:13.671Z,957.83
2022-09-03T00:18:13.624Z,957.88
2022-09-03T00:19:13.588Z,957.62
2022-09-03T00:20:13.661Z,957.84
2022-09-03T00:21:13.641Z,957.87
2022-09-03T00:22:13.604Z,957.83
2022-09-03T00:23:13.525Z,957.9
2022-09-03T00:25:13.531Z,957.94
2022-09-03T00:26:13.498Z,957.92
2022-09-03T00:27:13.639Z,957.91
2022-09-03T00:28:13.551Z,957.92
2022-09-03T00:29:13.535Z,957.99
2022-09-03T00:30:13.819Z,957.96
2022-09-03T00:31:13.970Z,957.99
2022-09-03T00:32:13.573Z,957.97
2022-09-03T00:33:13.645Z,957.96
2022-09-03T00:34:13.648Z,958.01
2022-09-03T00:35:13.573Z,958
2022-09-03T00:36:13.565Z,958.02
2022-09-03T00:37:14.548Z,958.05
2022-09-03T00:38:13.816Z,958.11
2022-09-03T00:39:13.569Z,958.13
2022-09-03T00:40:13.725Z,958.17
2022-09-03T00:41:13.690Z,958.25
2022-09-03T00:42:13.655Z,958.31
2022-09-03T00:43:14.645Z,958.37
2022-09-03T00:44:13.588Z,958.44
2022-09-03T00:45:13.657Z,958.45
2022-09-03T00:46:13.641Z,958.49
2022-09-03T00:47:13.584Z,958.51
2022-09-03T00:51:13.668Z,958.53
2022-09-03T00:52:14.693Z,958.46
2022-09-03T00:53:13.694Z,958.48
2022-09-03T00:54:13.600Z,958.45
2022-09-03T00:55:13.606Z,958.44
2022-09-03T00:56:13.703Z,958.42
2022-09-03T00:57:13.673Z,958.46
2022-09-03T00:58:13.620Z,958.47
2022-09-03T00:59:13.720Z,958.5
2022-09-03T01:00:13.620Z,958.49
2022-09-03T01:02:13.814Z,958.55
2022-09-03T01:03:13.698Z,958.54
2022-09-03T01:04:13.660Z,958.53
2022-09-03T01:05:13.733Z,958.55
2022-09-03T01:06:13.705Z,958.5
2022-09-03T01:07:13.774Z,958.51
2022-09-03T01:08:13.743Z,958.48
2022-09-03T01:09:13.702Z,958.46
2022-09-03T01:10:13.636Z,958.44
2022-09-03T01:11:13.752Z,958.4
2022-09-03T01:12:13.719Z,958.38
2022-09-03T01:13:14.848Z,958.39
2022-09-03T01:14:13.758Z,958.38
2022-09-03T01:15:13.720Z,958.35
2022-09-03T01:16:13.701Z,958.28
2022-09-03T01:17:13.755Z,958.26
2022-09-03T01:18:13.825Z,958.25
2022-09-03T01:19:14.886Z,958.29
2022-09-03T01:20:13.757Z,958.26
2022-09-03T01:21:13.730Z,958.24
2022-09-03T01:22:13.797Z,958.22
2022-09-03T01:23:13.771Z,958.24
2022-09-03T01:24:13.825Z,958.21
2022-09-03T01:25:13.795Z,958.19
2022-09-03T01:29:13.766Z,958.13
2022-09-03T01:30:14.960Z,958.11
2022-09-03T01:31:13.711Z,958.07
2022-09-03T01:32:13.780Z,958.03
2022-09-03T01:33:13.840Z,958.01
2022-09-03T01:34:13.809Z,957.93
2022-09-03T01:36:13.848Z,957.91
2022-09-03T01:37:13.817Z,957.86
2022-09-03T01:38:13.784Z,957.81
2022-09-03T01:39:13.853Z,957.8
2022-09-03T01:40:13.713Z,957.79
2022-09-03T01:43:13.721Z,957.84
2022-09-03T01:44:13.789Z,957.87
2022-09-03T01:45:13.725Z,957.86
2022-09-03T01:46:13.888Z,957.89
2022-09-03T01:47:13.799Z,957.87
2022-09-03T01:48:13.729Z,957.81
2022-09-03T01:50:13.794Z,957.83
2022-09-03T01:51:13.783Z,957.88
2022-09-03T01:52:13.837Z,957.85
2022-09-03T01:53:13.915Z,957.88
2022-09-03T01:55:13.838Z,957.87
2022-09-03T01:57:35.064Z,957.9
2022-09-03T01:58:13.975Z,957.93
2022-09-03T01:59:13.915Z,957.94
2022-09-03T02:01:13.881Z,957.93
2022-09-03T02:02:13.956Z,957.92
2022-09-03T02:03:13.881Z,957.86
2022-09-03T02:05:18.158Z,957.83
2022-09-03T02:06:13.883Z,957.86
2022-09-03T02:07:13.881Z,957.82
2022-09-03T02:08:13.921Z,957.8
2022-09-03T02:10:13.864Z,957.73
2022-09-03T02:11:15.201Z,957.69
2022-09-03T02:12:13.787Z,957.72
2022-09-03T02:13:13.873Z,957.75
2022-09-03T02:14:13.931Z,957.76
2022-09-03T02:15:13.904Z,957.82
2022-09-03T02:17:15.241Z,957.83
2022-09-03T02:18:13.913Z,957.86
2022-09-03T02:19:13.800Z,957.88
2022-09-03T02:20:13.947Z,957.87
2022-09-03T02:21:13.905Z,957.88
2022-09-03T02:22:13.879Z,957.89
2022-09-03T02:23:13.950Z,957.92
2022-09-03T02:24:13.820Z,957.9
2022-09-03T02:26:13.829Z,957.87
2022-09-03T02:27:13.921Z,957.85
2022-09-03T02:28:16.966Z,957.91
2022-09-03T02:29:13.955Z,957.87
2022-09-03T02:30:13.926Z,957.94
2022-09-03T02:31:14.065Z,957.98
2022-09-03T02:33:13.944Z,958.01
2022-09-03T02:34:13.988Z,958.06
2022-09-03T02:35:13.956Z,958.08
2022-09-03T02:36:13.933Z,958.05
2022-09-03T02:37:14.867Z,958.07
2022-09-03T02:38:13.970Z,958.05
2022-09-03T02:39:13.936Z,958.02
2022-09-03T02:40:13.901Z,958.03
2022-09-03T02:41:13.970Z,958
2022-09-03T02:42:13.936Z,958.03
2022-09-03T02:43:14.889Z,957.93
2022-09-03T02:44:14.127Z,957.99
2022-09-03T02:45:13.939Z,958
2022-09-03T02:47:13.982Z,957.99
2022-09-03T02:49:14.021Z,958.02
2022-09-03T02:50:13.985Z,958.01
2022-09-03T02:51:14.581Z,958.04
2022-09-03T02:54:15.794Z,958.07
2022-09-03T02:55:14.028Z,958.04
2022-09-03T02:56:14.000Z,958.07
2022-09-03T02:57:14.065Z,958.09
2022-09-03T03:01:18.081Z,958.06
2022-09-03T03:02:14.222Z,958.08
2022-09-03T03:04:13.925Z,958.11
2022-09-03T03:05:14.001Z,958.08
2022-09-03T03:07:14.034Z,958.12
2022-09-03T03:08:14.009Z,958.07
2022-09-03T03:10:14.042Z,958.05
2022-09-03T03:11:14.018Z,958.02
2022-09-03T03:12:14.090Z,958.06
2022-09-03T03:13:14.045Z,958.05
2022-09-03T03:14:13.952Z,958.1
2022-09-03T03:15:14.122Z,958.07
2022-09-03T03:16:14.100Z,958.09
2022-09-03T03:17:14.022Z,958.12
2022-09-03T03:18:15.163Z,958.07
2022-09-03T03:19:14.055Z,958.11
2022-09-03T03:20:14.020Z,958.14
2022-09-03T03:21:14.014Z,958.15
2022-09-03T03:22:14.060Z,958.17
2022-09-03T03:23:14.025Z,958.19
2022-09-03T03:24:14.096Z,958.24
2022-09-03T03:26:14.038Z,958.25
2022-09-03T03:27:15.170Z,958.24
2022-09-03T03:29:15.184Z,958.23
2022-09-03T03:31:14.154Z,958.28
2022-09-03T03:32:14.072Z,958.26
2022-09-03T03:33:14.005Z,958.22
2022-09-03T03:34:14.083Z,958.26
2022-09-03T03:35:14.041Z,958.24
2022-09-03T03:36:13.998Z,958.26
2022-09-03T03:37:14.084Z,958.27
2022-09-03T03:39:14.120Z,958.28
2022-09-03T03:40:14.088Z,958.37
2022-09-03T03:41:14.002Z,958.4
2022-09-03T03:42:14.120Z,958.37
2022-09-03T03:43:14.090Z,958.41
2022-09-03T03:44:14.005Z,958.47
2022-09-03T03:45:14.118Z,958.49
2022-09-03T03:47:15.786Z,958.54
2022-09-03T03:48:14.024Z,958.56
2022-09-03T03:49:14.095Z,958.57
2022-09-03T03:50:14.020Z,958.6
2022-09-03T03:51:14.134Z,958.64
2022-09-03T03:53:15.322Z,958.66
2022-09-03T03:54:14.485Z,958.68
2022-09-03T03:55:14.963Z,958.73
2022-09-03T03:56:14.295Z,958.74
2022-09-03T03:57:14.144Z,958.78
2022-09-03T03:58:14.112Z,958.8
2022-09-03T03:59:14.065Z,958.81
2022-09-03T04:01:14.092Z,958.79
2022-09-03T04:02:14.119Z,958.75
2022-09-03T04:03:14.145Z,958.78
2022-09-03T04:04:14.112Z,958.76
2022-09-03T04:05:14.081Z,958.78
2022-09-03T04:08:14.080Z,958.77
2022-09-03T04:10:14.229Z,958.76
2022-09-03T04:11:14.195Z,958.8
2022-09-03T04:12:14.165Z,958.79
2022-09-03T04:13:14.095Z,958.82
2022-09-03T04:14:14.200Z,958.78
2022-09-03T04:15:14.163Z,958.76
2022-09-03T04:16:14.309Z,958.75
2022-09-03T04:17:14.203Z,958.74
2022-09-03T04:18:14.173Z,958.79
2022-09-03T04:19:14.245Z,958.73
2022-09-03T04:20:14.209Z,958.72
2022-09-03T04:21:14.176Z,958.7
2022-09-03T04:22:14.245Z,958.73
2022-09-03T04:23:14.208Z,958.74
2022-09-03T04:24:14.177Z,958.71
2022-09-03T04:25:14.247Z,958.69
2022-09-03T04:26:14.209Z,958.63
2022-09-03T04:27:14.182Z,958.62
2022-09-03T04:28:14.248Z,958.6
2022-09-03T04:29:14.214Z,958.59
2022-09-03T04:30:14.186Z,958.61
2022-09-03T04:31:14.349Z,958.59
2022-09-03T04:32:14.223Z,958.58
2022-09-03T04:34:14.263Z,958.57
2022-09-03T04:35:14.218Z,958.55
2022-09-03T04:36:15.591Z,958.52
2022-09-03T04:37:14.151Z,958.53
2022-09-03T04:38:14.235Z,958.48
2022-09-03T04:39:14.199Z,958.5
2022-09-03T04:40:14.266Z,958.49
2022-09-03T04:42:14.316Z,958.51
2022-09-03T04:43:14.271Z,958.46
2022-09-03T04:44:14.234Z,958.54
2022-09-03T04:45:14.308Z,958.5
2022-09-03T04:47:14.236Z,958.56
2022-09-03T04:48:14.325Z,958.59
2022-09-03T04:49:14.278Z,958.55
2022-09-03T04:50:14.245Z,958.58
2022-09-03T04:51:14.322Z,958.59
2022-09-03T04:52:14.286Z,958.58
2022-09-03T04:53:14.250Z,958.57
2022-09-03T04:54:14.260Z,958.56
2022-09-03T04:55:14.286Z,958.57
2022-09-03T04:56:14.256Z,958.58
2022-09-03T04:58:14.288Z,958.6
2022-09-03T05:00:14.338Z,958.59
2022-09-03T05:01:14.339Z,958.57
2022-09-03T05:02:14.430Z,958.56
2022-09-03T05:03:14.333Z,958.58
2022-09-03T05:04:14.300Z,958.55
2022-09-03T05:05:14.270Z,958.56
2022-09-03T05:07:14.306Z,958.51
2022-09-03T05:08:14.274Z,958.48
2022-09-03T05:09:14.334Z,958.51
2022-09-03T05:10:14.316Z,958.58
2022-09-03T05:12:14.238Z,958.61
2022-09-03T05:13:14.316Z,958.62
2022-09-03T05:14:14.284Z,958.61
2022-09-03T05:15:14.344Z,958.62
2022-09-03T05:16:14.371Z,958.6
2022-09-03T05:17:14.326Z,958.59
2022-09-03T05:18:14.379Z,958.62
2022-09-03T05:19:14.247Z,958.65
2022-09-03T05:20:15.365Z,958.63
2022-09-03T05:21:14.366Z,958.64
2022-09-03T05:23:14.393Z,958.67
2022-09-03T05:24:14.258Z,958.64
2022-09-03T05:25:14.255Z,958.67
2022-09-03T05:26:14.406Z,958.66
2022-09-03T05:28:14.340Z,958.67
2022-09-03T05:30:14.379Z,958.64
2022-09-03T05:31:15.439Z,958.67
2022-09-03T05:33:14.374Z,958.7
2022-09-03T05:34:16.479Z,958.68
2022-09-03T05:35:14.294Z,958.69
2022-09-03T05:36:14.380Z,958.68
2022-09-03T05:37:14.456Z,958.65
2022-09-03T05:38:14.299Z,958.66
2022-09-03T05:41:14.308Z,958.64
2022-09-03T05:42:14.389Z,958.66
2022-09-03T05:43:14.319Z,958.71
2022-09-03T05:44:14.423Z,958.69
2022-09-03T05:45:14.307Z,958.72
2022-09-03T05:46:14.390Z,958.71
2022-09-03T05:47:14.423Z,958.68
2022-09-03T05:49:14.468Z,958.67
2022-09-03T05:50:14.428Z,958.63
2022-09-03T05:52:14.474Z,958.59
2022-09-03T05:53:14.429Z,958.53
2022-09-03T05:54:14.330Z,958.58
2022-09-03T05:55:14.367Z,958.59
2022-09-03T05:56:14.447Z,958.55
2022-09-03T05:57:14.413Z,958.57
2022-09-03T05:59:14.343Z,958.54
2022-09-03T06:00:14.414Z,958.53
2022-09-03T06:02:14.554Z,958.45
2022-09-03T06:03:14.485Z,958.41
2022-09-03T06:04:14.361Z,958.38
2022-09-03T06:05:14.439Z,958.37
2022-09-03T06:06:14.371Z,958.36
2022-09-03T06:07:14.371Z,958.35
2022-09-03T06:08:14.450Z,958.36
2022-09-03T06:10:14.363Z,958.35
2022-09-03T06:12:14.428Z,958.29
2022-09-03T06:15:15.707Z,958.26
2022-09-03T06:16:14.566Z,958.22
2022-09-03T06:17:14.470Z,958.13
2022-09-03T06:18:14.537Z,958.08
2022-09-03T06:19:14.513Z,958.06
2022-09-03T06:20:14.478Z,958.05
2022-09-03T06:21:14.544Z,958.07
2022-09-03T06:22:14.411Z,958.05
2022-09-03T06:23:14.407Z,958.06
2022-09-03T06:24:14.427Z,958.05
2022-09-03T06:25:14.514Z,958.07
2022-09-03T06:26:14.478Z,958.11
2022-09-03T06:27:14.479Z,958.13
2022-09-03T06:28:14.524Z,958.14
2022-09-03T06:30:14.439Z,958.21
2022-09-03T06:31:14.457Z,958.18
2022-09-03T06:32:14.491Z,958.15
2022-09-03T06:33:14.561Z,958.19
2022-09-03T06:34:14.533Z,958.15
2022-09-03T06:35:14.501Z,958.1
2022-09-03T06:36:14.563Z,958.09
2022-09-03T06:37:14.439Z,958.06
2022-09-03T06:38:14.517Z,958.07
2022-09-03T06:39:14.436Z,958.05
2022-09-03T06:40:14.529Z,958.03
2022-09-03T06:41:14.452Z,958.04
2022-09-03T06:42:14.569Z,958.05
2022-09-03T06:43:14.547Z,958.06
2022-09-03T06:44:14.465Z,958.04
2022-09-03T06:46:14.577Z,958.02
2022-09-03T06:47:14.513Z,958.05
2022-09-03T06:49:14.459Z,958.01
2022-09-03T06:51:14.630Z,958
2022-09-03T06:52:14.551Z,957.99
2022-09-03T06:53:14.525Z,957.95
2022-09-03T06:54:14.510Z,957.98
2022-09-03T06:55:14.556Z,957.95
2022-09-03T06:56:14.485Z,957.97
2022-09-03T06:57:14.589Z,958
2022-09-03T06:58:14.570Z,957.99
2022-09-03T06:59:15.481Z,958.01
2022-09-03T07:00:14.599Z,958.05
2022-09-03T07:01:14.532Z,958.04
2022-09-03T07:02:14.692Z,958.08
2022-09-03T07:04:14.572Z,958.03
2022-09-03T07:05:14.538Z,958.11
2022-09-03T07:06:14.606Z,958.27
2022-09-03T07:07:14.512Z,958.54
2022-09-03T07:08:14.564Z,958.68
2022-09-03T07:09:14.607Z,958.81
2022-09-03T07:10:14.572Z,958.92
2022-09-03T07:11:14.530Z,959.02
2022-09-03T07:12:14.613Z,959.03
2022-09-03T07:13:14.588Z,959.08
2022-09-03T07:14:14.537Z,959.06
2022-09-03T07:16:14.698Z,958.97
2022-09-03T07:17:14.550Z,958.9
2022-09-03T07:18:14.627Z,958.57
2022-09-03T07:19:14.715Z,958.38
2022-09-03T07:20:14.539Z,958.37
2022-09-03T07:21:14.544Z,958.34
2022-09-03T07:22:14.709Z,958.38
2022-09-03T07:23:14.662Z,958.37
2022-09-03T07:25:14.598Z,958.33
2022-09-03T07:26:14.557Z,958.3
2022-09-03T07:27:15.109Z,958.13
2022-09-03T07:28:14.566Z,957.95
2022-09-03T07:29:14.664Z,957.9
2022-09-03T07:30:14.643Z,957.96
2022-09-03T07:31:14.613Z,957.92
2022-09-03T07:32:14.582Z,957.95
2022-09-03T07:33:14.642Z,957.99
2022-09-03T07:34:14.608Z,957.98
2022-09-03T07:35:14.578Z,958.02
2022-09-03T07:36:14.644Z,958.04
2022-09-03T07:37:14.649Z,958.03
2022-09-03T07:38:14.682Z,957.98
2022-09-03T07:39:14.758Z,958.02
2022-09-03T07:40:14.723Z,958.05
2022-09-03T07:41:28.302Z,958.08
2022-09-03T07:42:25.105Z,958.18
2022-09-03T07:43:24.929Z,958.15
2022-09-03T07:44:25.036Z,958.18
2022-09-03T07:45:24.996Z,958.15
2022-09-03T07:46:25.006Z,958.1
2022-09-03T07:47:26.937Z,958.07
2022-09-03T07:49:24.943Z,958.04
2022-09-03T07:50:24.949Z,958.02
2022-09-03T07:51:25.009Z,957.99
2022-09-03T07:53:24.962Z,957.92
2022-09-03T07:54:25.028Z,957.85
2022-09-03T07:55:25.077Z,957.82
2022-09-03T07:56:25.041Z,957.81
2022-09-03T07:57:24.966Z,957.8
2022-09-03T07:58:25.167Z,957.79
2022-09-03T07:59:25.049Z,957.86
2022-09-03T08:00:25.032Z,957.87
2022-09-03T08:01:24.980Z,957.95
2022-09-03T08:02:25.042Z,958.02
2022-09-03T08:03:25.015Z,958.09
2022-09-03T08:04:24.982Z,958.15
2022-09-03T08:05:25.064Z,958.18
2022-09-03T08:06:25.134Z,958.22
2022-09-03T08:07:25.102Z,958.19
2022-09-03T08:08:25.258Z,958.23
2022-09-03T08:09:25.023Z,958.2
2022-09-03T08:10:25.000Z,958.26
2022-09-03T08:11:25.003Z,958.29
2022-09-03T08:12:25.052Z,958.24
2022-09-03T08:13:26.073Z,958.17
2022-09-03T08:14:25.225Z,958.1
2022-09-03T08:15:25.007Z,958.09
2022-09-03T08:16:25.159Z,958.07
2022-09-03T08:17:25.069Z,957.99
2022-09-03T08:18:25.127Z,957.98
2022-09-03T08:19:25.015Z,957.99
2022-09-03T08:20:25.175Z,958.02
2022-09-03T08:21:25.149Z,957.95
2022-09-03T08:22:25.024Z,957.92
2022-09-03T08:23:25.093Z,957.93
2022-09-03T08:24:25.047Z,957.94
2022-09-03T08:25:25.044Z,957.93
2022-09-03T08:26:25.054Z,957.9
2022-09-03T08:27:25.153Z,957.95
2022-09-03T08:28:25.178Z,957.99
2022-09-03T08:30:25.054Z,958.02
2022-09-03T08:31:25.110Z,958
2022-09-03T08:32:25.086Z,957.99
2022-09-03T08:33:25.054Z,958.01
2022-09-03T08:34:25.057Z,957.99
2022-09-03T08:35:25.124Z,958.02
2022-09-03T08:36:25.065Z,958.06
2022-09-03T08:37:25.068Z,958.05
2022-09-03T08:38:25.291Z,958.08
2022-09-03T08:39:25.115Z,958.09
2022-09-03T08:40:25.138Z,958.07
2022-09-03T08:42:25.081Z,958.08
2022-09-03T08:43:25.132Z,958.1
2022-09-03T08:44:25.171Z,958.09
2022-09-03T08:45:25.203Z,958.07
2022-09-03T08:46:25.213Z,958.08
2022-09-03T08:47:25.111Z,958.13
2022-09-03T08:48:25.816Z,958.19
2022-09-03T08:49:25.165Z,958.26
2022-09-03T08:50:25.221Z,958.31
2022-09-03T08:51:25.191Z,958.36
2022-09-03T08:52:25.259Z,958.41
2022-09-03T08:53:25.243Z,958.45
2022-09-03T08:54:25.195Z,958.39
2022-09-03T08:55:25.110Z,958.32
2022-09-03T08:56:25.239Z,958.21
2022-09-03T08:57:25.207Z,958.24
2022-09-03T08:58:25.228Z,958.28
2022-09-03T08:59:28.232Z,958.34
2022-09-03T09:00:25.119Z,958.37
2022-09-03T09:01:25.206Z,958.4
2022-09-03T09:02:25.342Z,958.35
2022-09-03T09:03:25.203Z,958.39
2022-09-03T09:05:25.243Z,958.43
2022-09-03T09:07:25.142Z,958.34
2022-09-03T09:08:25.299Z,958.29
2022-09-03T09:09:25.216Z,958.24
2022-09-03T09:11:25.156Z,958.33
2022-09-03T09:12:25.211Z,958.3
2022-09-03T09:13:25.454Z,958.28
2022-09-03T09:14:25.271Z,958.24
2022-09-03T09:15:25.161Z,958.23
2022-09-03T09:16:25.209Z,958.21
2022-09-03T09:17:25.164Z,958.16
2022-09-03T09:18:25.330Z,958.23
2022-09-03T09:19:25.296Z,958.32
2022-09-03T09:20:25.186Z,958.43
2022-09-03T09:21:27.700Z,958.5
2022-09-03T09:23:25.269Z,958.46
2022-09-03T09:24:25.254Z,958.42
2022-09-03T09:25:25.192Z,958.43
2022-09-03T09:26:25.192Z,958.38
2022-09-03T09:27:25.269Z,958.36
2022-09-03T09:28:25.471Z,958.32
2022-09-03T09:30:25.262Z,958.31
2022-09-03T09:31:25.346Z,958.36
2022-09-03T09:32:25.381Z,958.38
2022-09-03T09:33:25.244Z,958.4
2022-09-03T09:34:25.313Z,958.44
2022-09-03T09:35:25.271Z,958.48
2022-09-03T09:36:25.372Z,958.53
2022-09-03T09:37:25.222Z,958.58
2022-09-03T09:38:25.350Z,958.57
2022-09-03T09:39:25.290Z,958.58
2022-09-03T09:40:25.358Z,958.6
2022-09-03T09:41:29.634Z,958.65
2022-09-03T09:42:25.234Z,958.7
2022-09-03T09:43:25.238Z,958.75
2022-09-03T09:44:25.315Z,958.8
2022-09-03T09:45:25.249Z,958.85
2022-09-03T09:46:25.255Z,958.84
2022-09-03T09:47:25.255Z,958.88
2022-09-03T09:48:25.456Z,958.89
2022-09-03T09:49:25.333Z,958.94
2022-09-03T09:51:25.472Z,958.93
2022-09-03T09:52:25.346Z,958.96
2022-09-03T09:53:25.260Z,958.92
2022-09-03T09:54:25.378Z,958.93
2022-09-03T09:55:25.342Z,958.96
2022-09-03T09:56:25.267Z,959.02
2022-09-03T09:58:25.484Z,959.03
2022-09-03T09:59:25.344Z,959.01
2022-09-03T10:00:25.382Z,959.06
2022-09-03T10:01:25.318Z,959.08
2022-09-03T10:02:25.330Z,959.14
2022-09-03T10:04:27.791Z,959.17
2022-09-03T10:05:25.298Z,959.22
2022-09-03T10:06:25.394Z,959.23
2022-09-03T10:07:25.456Z,959.32
2022-09-03T10:08:25.434Z,959.36
2022-09-03T10:09:26.769Z,959.37
2022-09-03T10:11:25.325Z,959.38
2022-09-03T10:12:25.317Z,959.39
2022-09-03T10:14:25.324Z,959.43
2022-09-03T10:15:25.402Z,959.41
2022-09-03T10:16:25.341Z,959.42
2022-09-03T10:17:30.104Z,959.4
2022-09-03T10:18:26.146Z,959.42
2022-09-03T10:19:25.484Z,959.44
2022-09-03T10:20:25.329Z,959.43
2022-09-03T10:21:25.415Z,959.4
2022-09-03T10:22:25.485Z,959.45
2022-09-03T10:24:25.339Z,959.52
2022-09-03T10:25:25.339Z,959.57
2022-09-03T10:26:25.343Z,959.6
2022-09-03T10:27:25.340Z,959.63
2022-09-03T10:28:26.884Z,959.68
2022-09-03T10:29:25.454Z,959.56
2022-09-03T10:30:25.422Z,959.47
2022-09-03T10:31:25.443Z,959.44
2022-09-03T10:32:25.348Z,959.41
2022-09-03T10:33:25.581Z,959.35
2022-09-03T10:34:25.501Z,959.31
2022-09-03T10:35:25.471Z,959.32
2022-09-03T10:36:25.431Z,959.43
2022-09-03T10:37:25.502Z,959.47
2022-09-03T10:38:25.609Z,959.49
2022-09-03T10:39:26.755Z,959.47
2022-09-03T10:40:25.509Z,959.53
2022-09-03T10:41:25.472Z,959.5
2022-09-03T10:42:25.539Z,959.56
2022-09-03T10:43:25.512Z,959.54
2022-09-03T10:45:25.549Z,959.52
2022-09-03T10:47:25.413Z,959.5
2022-09-03T10:48:25.482Z,959.46
2022-09-03T10:49:25.412Z,959.49
2022-09-03T10:50:25.481Z,959.55
2022-09-03T10:51:25.407Z,959.52
2022-09-03T10:52:47.809Z,959.57
2022-09-03T10:54:25.403Z,959.55
2022-09-03T10:55:25.519Z,959.6
2022-09-03T10:57:25.418Z,959.62
2022-09-03T10:58:25.611Z,959.57
2022-09-03T10:59:29.027Z,959.56
2022-09-03T11:00:25.573Z,959.57
2022-09-03T11:01:25.640Z,959.5
2022-09-03T11:02:25.519Z,959.51
2022-09-03T11:03:25.581Z,959.48
2022-09-03T11:04:25.437Z,959.49
2022-09-03T11:05:25.501Z,959.52
2022-09-03T11:06:25.442Z,959.53
2022-09-03T11:07:25.542Z,959.56
2022-09-03T11:08:25.626Z,959.51
2022-09-03T11:10:25.546Z,959.54
2022-09-03T11:11:25.521Z,959.52
2022-09-03T11:12:25.582Z,959.54
2022-09-03T11:13:25.544Z,959.58
2022-09-03T11:14:26.422Z,959.61
2022-09-03T11:15:27.780Z,959.66
2022-09-03T11:16:25.599Z,959.63
2022-09-03T11:17:25.469Z,959.64
2022-09-03T11:18:25.633Z,959.65
2022-09-03T11:19:25.475Z,959.64
2022-09-03T11:20:25.677Z,959.63
2022-09-03T11:21:25.582Z,959.62
2022-09-03T11:22:25.563Z,959.57
2022-09-03T11:23:25.572Z,959.58
2022-09-03T11:24:25.603Z,959.6
2022-09-03T11:25:25.571Z,959.62
2022-09-03T11:27:25.603Z,959.57
2022-09-03T11:28:25.650Z,959.51
2022-09-03T11:29:25.653Z,959.55
2022-09-03T11:30:25.649Z,959.5
2022-09-03T11:31:25.605Z,959.47
2022-09-03T11:32:25.503Z,959.4
2022-09-03T11:33:25.514Z,959.38
2022-09-03T11:34:31.838Z,959.35
2022-09-03T11:35:25.759Z,959.31
2022-09-03T11:36:25.612Z,959.35
2022-09-03T11:37:25.679Z,959.43
2022-09-03T11:38:25.560Z,959.46
2022-09-03T11:41:25.529Z,959.43
2022-09-03T11:42:25.538Z,959.44
2022-09-03T11:43:25.609Z,959.45
2022-09-03T11:44:25.675Z,959.46
2022-09-03T11:45:25.536Z,959.47
2022-09-03T11:48:25.687Z,959.5
2022-09-03T11:49:25.555Z,959.49
2022-09-03T11:50:25.743Z,959.51
2022-09-03T11:51:25.562Z,959.55
2022-09-03T11:52:25.562Z,959.53
2022-09-03T11:53:25.750Z,959.52
2022-09-03T11:55:25.723Z,959.5
2022-09-03T11:56:25.586Z,959.51
2022-09-03T11:57:25.577Z,959.45
2022-09-03T11:58:26.676Z,959.47
2022-09-03T11:59:25.580Z,959.42
2022-09-03T12:00:25.652Z,959.47
2022-09-03T12:01:25.582Z,959.42
2022-09-03T12:02:27.176Z,959.4
2022-09-03T12:03:25.770Z,959.39
2022-09-03T12:04:25.736Z,959.43
2022-09-03T12:05:25.592Z,959.44
2022-09-03T12:06:25.663Z,959.34
2022-09-03T12:07:25.722Z,959.31
2022-09-03T12:08:25.595Z,959.26
2022-09-03T12:09:25.611Z,959.23
2022-09-03T12:11:25.605Z,959.21
2022-09-03T12:12:25.702Z,959.23
2022-09-03T12:13:25.813Z,959.22
2022-09-03T12:14:25.613Z,959.29
2022-09-03T12:15:25.674Z,959.32
2022-09-03T12:16:25.659Z,959.33
2022-09-03T12:17:25.621Z,959.34
2022-09-03T12:18:25.681Z,959.37
2022-09-03T12:19:25.622Z,959.38
2022-09-03T12:20:25.623Z,959.42
2022-09-03T12:21:25.628Z,959.46
2022-09-03T12:22:25.752Z,959.51
2022-09-03T12:23:25.771Z,959.58
2022-09-03T12:25:25.638Z,959.66
2022-09-03T12:26:25.716Z,959.67
2022-09-03T12:28:25.760Z,959.68
2022-09-03T12:29:27.759Z,959.66
2022-09-03T12:30:25.665Z,959.67
2022-09-03T12:31:25.764Z,959.65
2022-09-03T12:32:25.721Z,959.64
2022-09-03T12:33:25.866Z,959.61
2022-09-03T12:36:25.704Z,959.5
2022-09-03T12:38:25.874Z,959.47
2022-09-03T12:40:25.811Z,959.47
2022-09-03T12:41:27.148Z,959.49
2022-09-03T12:42:26.031Z,959.51
2022-09-03T12:43:40.560Z,959.5
2022-09-03T12:45:25.867Z,959.48
2022-09-03T12:46:26.644Z,959.43
2022-09-03T12:47:35.492Z,959.41
2022-09-03T12:48:25.708Z,959.4
2022-09-03T12:49:31.812Z,959.38
2022-09-03T12:50:25.703Z,959.42
2022-09-03T12:51:49.653Z,959.43
2022-09-03T12:52:25.711Z,959.44
2022-09-03T12:53:25.837Z,959.55
2022-09-03T12:54:25.830Z,959.51
2022-09-03T12:55:27.382Z,959.42
2022-09-03T12:56:25.937Z,959.4
2022-09-03T12:57:25.833Z,959.34
2022-09-03T12:58:25.800Z,959.31
2022-09-03T12:59:27.068Z,959.26
2022-09-03T13:00:25.736Z,959.29
2022-09-03T13:01:25.818Z,959.28
2022-09-03T13:02:25.744Z,959.32
2022-09-03T13:03:25.986Z,959.26
2022-09-03T13:05:27.107Z,959.22
2022-09-03T13:07:25.921Z,959.18
2022-09-03T13:09:25.751Z,959.2
2022-09-03T13:10:25.817Z,959.22
2022-09-03T13:11:25.879Z,959.21
2022-09-03T13:12:25.771Z,959.17
2022-09-03T13:13:25.859Z,959.16
2022-09-03T13:14:25.754Z,959.15
2022-09-03T13:15:25.859Z,959.16
2022-09-03T13:16:25.791Z,959.15
2022-09-03T13:17:25.892Z,959.04
2022-09-03T13:18:25.859Z,959.07
2022-09-03T13:19:25.781Z,959.09
2022-09-03T13:20:25.907Z,959.07
2022-09-03T13:21:25.782Z,959.1
2022-09-03T13:22:25.829Z,959.13
2022-09-03T13:23:25.960Z,959.14
2022-09-03T13:24:25.866Z,959.1
2022-09-03T13:25:25.797Z,959.07
2022-09-03T13:26:25.914Z,959.03
2022-09-03T13:27:25.795Z,958.96
2022-09-03T13:28:25.806Z,958.93
2022-09-03T13:30:25.916Z,958.91
2022-09-03T13:31:25.843Z,958.87
2022-09-03T13:32:25.806Z,958.82
2022-09-03T13:34:26.059Z,958.8
2022-09-03T13:35:25.825Z,958.77
2022-09-03T13:36:25.887Z,958.83
2022-09-03T13:37:25.850Z,958.85
2022-09-03T13:39:32.833Z,958.88
2022-09-03T13:40:25.848Z,958.86
2022-09-03T13:41:25.928Z,958.87
2022-09-03T13:42:25.920Z,958.9
2022-09-03T13:43:25.997Z,958.89
2022-09-03T13:44:25.927Z,958.91
2022-09-03T13:45:25.896Z,958.9
2022-09-03T13:46:25.937Z,958.89
2022-09-03T13:47:25.847Z,958.79
2022-09-03T13:48:25.901Z,958.74
2022-09-03T13:49:25.980Z,958.78
2022-09-03T13:51:25.865Z,958.7
2022-09-03T13:52:25.975Z,958.65
2022-09-03T13:53:26.053Z,958.69
2022-09-03T13:54:42.825Z,958.64
2022-09-03T13:55:25.975Z,958.66
2022-09-03T13:56:25.953Z,958.6
2022-09-03T13:57:25.923Z,958.65
2022-09-03T13:58:25.980Z,958.64
2022-09-03T13:59:26.057Z,958.63
2022-09-03T14:00:26.939Z,958.64
2022-09-03T14:01:25.962Z,958.63
2022-09-03T14:02:25.976Z,958.62
2022-09-03T14:03:26.053Z,958.6
2022-09-03T14:05:25.962Z,958.63
2022-09-03T14:06:25.907Z,958.7
2022-09-03T14:07:25.986Z,958.74
2022-09-03T14:08:25.900Z,958.72
2022-09-03T14:09:26.049Z,958.75
2022-09-03T14:10:26.001Z,958.79
2022-09-03T14:11:26.001Z,958.83
2022-09-03T14:12:26.042Z,958.87
2022-09-03T14:13:26.010Z,958.88
2022-09-03T14:14:25.931Z,958.86
2022-09-03T14:15:26.045Z,958.87
2022-09-03T14:16:25.951Z,958.84
2022-09-03T14:17:25.956Z,958.79
2022-09-03T14:18:26.072Z,958.73
2022-09-03T14:19:26.015Z,958.69
2022-09-03T14:20:25.975Z,958.65
2022-09-03T14:21:26.053Z,958.66
2022-09-03T14:22:26.023Z,958.68
2022-09-03T14:23:26.222Z,958.61
2022-09-03T14:24:26.046Z,958.58
2022-09-03T14:26:38.038Z,958.61